Saturday, November 18, 2017, 4:39 PM EST
Back to Local

KBFD, Bradford Regional Airport

Location: Cyclone, PA, United States Lat: 41.8
Local Time: 4:39 PM EST (21:39 GMT) Lon: -78.633
Time Zone: US/Eastern Elev: 2142 ft

Show me the last for .
Show Decoded

2017-11-18 16:03 METAR KBFD 182103Z AUTO 16007KT 120V190 6SM -RA BR OVC005 07/07 A2938 RMK AO2
                 P0000 T00720072 =
2017-11-18 15:53 METAR KBFD 182053Z AUTO 17007KT 140V200 2 1/2SM RA BR OVC005 07/07 A2939 RMK AO2
                 SLP960 P0011 60018 T00720067 56040 =
2017-11-18 14:53 METAR KBFD 181953Z AUTO VRB06KT 4SM -RA BR OVC006 07/07 A2942 RMK AO2 CIG
                 004V009 SLP969 P0006 T00670067 =
2017-11-18 14:34 METAR KBFD 181934Z AUTO 19008KT 5SM -RA BR OVC005 07/06 A2943 RMK AO2 CIG
                 004V009 P0004 T00670061 =
2017-11-18 13:53 METAR KBFD 181853Z AUTO 18008KT 3SM -RA BR OVC003 06/06 A2946 RMK AO2 RAB34
                 SLP985 P0001 T00610061 =
2017-11-18 13:22 METAR KBFD 181822Z AUTO 18008KT 160V220 2 1/2SM BR OVC003 06/06 A2949 RMK AO2
                 T00610056 =
2017-11-18 12:53 METAR KBFD 181753Z AUTO 20006KT 10SM OVC003 06/06 A2952 RMK AO2 RAB32E48 SLP006
                 P0000 60012 T00560056 10056 20022 56021 =
2017-11-18 11:53 METAR KBFD 181653Z AUTO 19008KT 10SM OVC004 06/05 A2953 RMK AO2 RAB1559E36
                 SLP011 P0000 T00560050 =
2017-11-18 11:49 METAR KBFD 181649Z AUTO 20007KT 10SM OVC004 06/05 A2952 RMK AO2 RAB1559E36 P0000
                 =
2017-11-18 11:26 METAR KBFD 181626Z AUTO 20008G16KT 10SM -RA OVC005 05/05 A2955 RMK AO2 RAB1559
                 P0000 T00500050 =
2017-11-18 10:53 METAR KBFD 181553Z AUTO 19007KT 150V250 10SM OVC004 05/04 A2958 RMK AO2 RAE01
                 SLP029 P0000 T00500044 =
2017-11-18 10:31 METAR KBFD 181531Z AUTO VRB06G14KT 10SM OVC004 05/04 A2959 RMK AO2 RAE01 P0000
                 T00500044 =
2017-11-18 09:53 METAR KBFD 181453Z AUTO 19006G17KT 10SM -RA OVC005 04/04 A2961 RMK AO2 SLP038
                 P0004 60012 T00440039 58017 =
2017-11-18 09:33 METAR KBFD 181433Z AUTO 19007KT 150V210 3SM RA BR OVC005 04/04 A2962 RMK AO2
                 P0004 T00390039 =
2017-11-18 09:20 METAR KBFD 181420Z AUTO 20008KT 2 1/2SM RA BR OVC004 04/03 A2963 RMK AO2 CIG
                 004V007 P0001 T00390033 =
2017-11-18 08:53 METAR KBFD 181353Z AUTO 19009G15KT 160V220 10SM -RA OVC007 03/03 A2964 RMK AO2
                 RAE17B43 SLP050 P0000 T00330028 =
2017-11-18 08:40 METAR KBFD 181340Z AUTO 17010KT 10SM OVC009 03/02 A2965 RMK AO2 RAE17 CIG
                 007V014 P0000 T00330022 =
2017-11-18 08:11 METAR KBFD 181311Z AUTO 18009KT 150V210 10SM -RA OVC014 03/02 A2966 RMK AO2
                 P0000 T00330017 =
2017-11-18 07:53 METAR KBFD 181253Z AUTO 17008G17KT 8SM -RA SCT016 BKN021 OVC029 03/01 A2966 RMK
                 AO2 SLP059 P0008 T00280011 =
2017-11-18 07:49 METAR KBFD 181249Z AUTO 18011G17KT 7SM -RA SCT018 BKN023 OVC029 03/01 A2966 RMK
                 AO2 P0008 =
2017-11-18 06:53 METAR KBFD 181153Z AUTO 15005KT 8SM -RA SCT040 OVC060 03/M01 A2968 RMK AO2 RAB07
                 SLP063 P0005 60005 70005 T00281006 10044 20000 58025 =
2017-11-18 05:53 METAR KBFD 181053Z AUTO VRB05KT 10SM FEW060 BKN090 OVC100 04/M05 A2971 RMK AO2
                 SLP073 T00441050 =
2017-11-18 04:53 METAR KBFD 180953Z AUTO 16007KT 10SM BKN085 OVC110 04/M05 A2974 RMK AO2 SLP082
                 T00391050 =
2017-11-18 03:53 METAR KBFD 180853Z AUTO 14008KT 10SM CLR 03/M04 A2976 RMK AO2 SLP088 T00281044
                 58030 =
2017-11-18 02:53 METAR KBFD 180753Z AUTO 15009KT 10SM CLR 02/M04 A2980 RMK AO2 SLP105 T00221044 =
2017-11-18 01:53 METAR KBFD 180653Z AUTO 14007KT 10SM CLR 01/M04 A2982 RMK AO2 SLP112 T00111044 =
2017-11-18 00:53 METAR KBFD 180553Z AUTO 14006KT 10SM CLR M01/M04 A2985 RMK AO2 SLP125 T10061044
                 10006 21011 58034 =
2017-11-17 23:53 METAR KBFD 180453Z AUTO 14006KT 10SM CLR M01/M04 A2990 RMK AO2 SLP143 T10111039
                 400281028 =
2017-11-17 22:53 METAR KBFD 180353Z AUTO 15005KT 10SM CLR 00/M03 A2994 RMK AO2 SLP155 T00001033 =
2017-11-17 21:53 METAR KBFD 180253Z AUTO 16004KT 10SM CLR 01/M03 A2996 RMK AO2 SLP163 T00061028
                 58022 =
2017-11-17 20:53 METAR KBFD 180153Z AUTO VRB05KT 10SM FEW120 01/M03 A2999 RMK AO2 SLP175
                 T00061028 =
2017-11-17 19:53 METAR KBFD 180053Z AUTO 14004KT 10SM BKN110 M01/M03 A3002 RMK AO2 SLP188
                 T10061033 =
2017-11-17 18:53 METAR KBFD 172353Z AUTO 00000KT 10SM CLR 00/M03 A3003 RMK AO2 SLP189 T00001033
                 10028 21006 55020 =
2017-11-17 17:53 METAR KBFD 172253Z AUTO 14005KT 10SM SCT100 01/M03 A3003 RMK AO2 SLP187
                 T00061033 =
2017-11-17 16:53 METAR KBFD 172153Z AUTO 00000KT 10SM BKN110 02/M04 A3006 RMK AO2 SLP196
                 T00171039 =

Support USWX by starting your Amazon purchase here.